createdAt,value
2023-03-08T00:01:49.034Z,0.01
2023-03-08T00:07:13.044Z,-0.01
2023-03-08T00:12:47.064Z,0.08
2023-03-08T00:18:12.027Z,0.10
2023-03-08T00:23:36.024Z,0.07
2023-03-08T00:29:04.045Z,0.07
2023-03-08T00:34:28.023Z,0.06
2023-03-08T00:39:53.019Z,0.15
2023-03-08T00:45:15.019Z,0.14
2023-03-08T00:50:40.033Z,0.16
2023-03-08T00:56:07.037Z,0.18
2023-03-08T01:01:35.050Z,0.16
2023-03-08T01:07:00.108Z,0.14
2023-03-08T01:12:32.044Z,0.15
2023-03-08T01:17:53.067Z,0.18
2023-03-08T01:23:19.105Z,0.19
2023-03-08T01:28:43.036Z,0.21
2023-03-08T01:34:11.024Z,0.13
2023-03-08T01:39:35.051Z,0.14
2023-03-08T01:45:06.056Z,0.10
2023-03-08T01:50:35.036Z,0.06
2023-03-08T01:55:56.095Z,0.05
2023-03-08T02:01:21.133Z,0.09
2023-03-08T02:06:52.054Z,0.08
2023-03-08T02:12:28.086Z,0.09
2023-03-08T02:17:54.095Z,0.05
2023-03-08T02:23:30.083Z,-0.03
2023-03-08T02:28:55.092Z,-0.04
2023-03-08T02:34:20.049Z,-0.05
2023-03-08T02:39:48.104Z,-0.09
2023-03-08T02:45:13.081Z,-0.12
2023-03-08T02:50:38.069Z,-0.12
2023-03-08T02:56:06.099Z,-0.18
2023-03-08T03:01:31.116Z,-0.22
2023-03-08T03:06:57.090Z,-0.16
2023-03-08T03:12:33.092Z,-0.24
2023-03-08T03:18:01.123Z,-0.21
2023-03-08T03:23:25.101Z,-0.18
2023-03-08T03:28:53.088Z,-0.22
2023-03-08T03:34:28.121Z,-0.28
2023-03-08T03:39:54.090Z,-0.35
2023-03-08T03:45:23.087Z,-0.36
2023-03-08T03:50:48.146Z,-0.42
2023-03-08T03:56:19.083Z,-0.45
2023-03-08T04:01:49.097Z,-0.43
2023-03-08T04:07:22.094Z,-0.41
2023-03-08T04:12:55.106Z,-0.36
2023-03-08T04:18:23.097Z,-0.32
2023-03-08T04:23:48.097Z,-0.30
2023-03-08T04:29:14.117Z,-0.26
2023-03-08T04:34:41.159Z,-0.24
2023-03-08T04:40:09.105Z,-0.23
2023-03-08T04:45:41.203Z,-0.27
2023-03-08T04:51:11.274Z,-0.26
2023-03-08T04:56:37.104Z,-0.28
2023-03-08T05:02:03.154Z,-0.26
2023-03-08T05:07:31.110Z,-0.26
2023-03-08T05:12:56.140Z,-0.24
2023-03-08T05:18:21.126Z,-0.25
2023-03-08T05:23:49.140Z,-0.23
2023-03-08T05:29:17.129Z,-0.23
2023-03-08T05:34:42.142Z,-0.22
2023-03-08T05:40:17.150Z,-0.26
2023-03-08T05:45:43.315Z,-0.32
2023-03-08T05:51:08.160Z,-0.38
2023-03-08T05:56:36.113Z,-0.39
2023-03-08T06:02:16.203Z,-0.37
2023-03-08T06:07:44.172Z,-0.40
2023-03-08T06:13:13.167Z,-0.45
2023-03-08T06:18:38.172Z,-0.48
2023-03-08T06:24:05.173Z,-0.52
2023-03-08T06:29:33.172Z,-0.52
2023-03-08T06:34:58.169Z,-0.50
2023-03-08T06:40:27.169Z,-0.46
2023-03-08T06:45:56.190Z,-0.36
2023-03-08T06:51:21.149Z,-0.21
2023-03-08T06:56:45.156Z,-0.10
2023-03-08T07:02:13.187Z,-0.07
2023-03-08T07:07:37.170Z,0.02
2023-03-08T07:13:26.157Z,0.10
2023-03-08T07:19:00.198Z,0.22
2023-03-08T07:24:25.220Z,0.35
2023-03-08T07:29:49.154Z,0.48
2023-03-08T07:35:18.171Z,0.63
2023-03-08T07:40:42.185Z,0.76
2023-03-08T07:46:11.248Z,0.92
2023-03-08T07:51:38.156Z,1.07
2023-03-08T07:57:04.184Z,1.17
2023-03-08T08:02:30.188Z,1.23
2023-03-08T08:07:58.207Z,1.34
2023-03-08T08:13:22.163Z,1.46
2023-03-08T08:18:53.180Z,1.51
2023-03-08T08:24:21.192Z,1.57
2023-03-08T08:29:45.211Z,1.66
2023-03-08T08:35:10.221Z,1.71
2023-03-08T08:40:37.202Z,1.74
2023-03-08T08:46:04.301Z,1.74
2023-03-08T08:51:30.177Z,1.78
2023-03-08T08:56:58.180Z,1.78
2023-03-08T09:02:24.263Z,1.81
2023-03-08T09:07:49.234Z,1.66
2023-03-08T09:13:16.270Z,1.68
2023-03-08T09:18:47.210Z,1.71
2023-03-08T09:24:16.197Z,1.48
2023-03-08T09:29:45.212Z,1.51
2023-03-08T09:35:11.218Z,1.53
2023-03-08T09:40:39.216Z,1.51
2023-03-08T09:46:07.290Z,1.39
2023-03-08T09:51:35.235Z,1.49
2023-03-08T09:57:03.215Z,1.43
2023-03-08T10:02:46.309Z,1.43
2023-03-08T10:08:19.248Z,1.43
2023-03-08T10:13:47.327Z,1.62
2023-03-08T10:19:21.224Z,1.73
2023-03-08T10:24:58.227Z,1.84
2023-03-08T10:30:27.288Z,1.96
2023-03-08T10:36:09.341Z,2.05
2023-03-08T10:41:35.253Z,2.09
2023-03-08T10:47:04.238Z,2.12
2023-03-08T10:52:37.244Z,2.22
2023-03-08T10:58:07.251Z,2.36
2023-03-08T11:03:34.284Z,2.46
2023-03-08T11:09:11.262Z,2.59
2023-03-08T11:14:37.311Z,2.71
2023-03-08T11:20:17.392Z,2.73
2023-03-08T11:25:52.266Z,2.70
2023-03-08T11:31:28.288Z,2.74
2023-03-08T11:37:00.284Z,2.65
2023-03-08T11:42:40.265Z,2.63
2023-03-08T11:48:41.302Z,2.62
2023-03-08T11:54:15.257Z,2.69
2023-03-08T11:59:48.284Z,2.69
2023-03-08T12:05:18.283Z,2.80
2023-03-08T12:10:52.265Z,2.83
2023-03-08T12:16:25.368Z,2.87
2023-03-08T12:21:56.296Z,2.95
2023-03-08T12:27:24.280Z,2.86
2023-03-08T12:32:54.539Z,2.87
2023-03-08T12:38:21.293Z,2.90
2023-03-08T12:43:47.275Z,2.88
2023-03-08T12:49:14.314Z,2.91
2023-03-08T12:54:43.322Z,2.97
2023-03-08T13:00:16.320Z,3.07
2023-03-08T13:05:46.287Z,3.18
2023-03-08T13:11:18.336Z,3.26
2023-03-08T13:16:51.336Z,3.32
2023-03-08T13:22:25.340Z,3.35
2023-03-08T14:13:33.091Z,3.42
2023-03-08T14:18:58.158Z,3.45
2023-03-08T14:24:23.096Z,3.43
2023-03-08T14:29:52.124Z,3.38
2023-03-08T14:35:30.098Z,3.39
2023-03-08T14:40:58.108Z,3.30
2023-03-08T14:46:35.250Z,3.30
2023-03-08T14:52:00.095Z,3.28
2023-03-08T14:57:33.106Z,3.21
2023-03-08T15:03:01.124Z,3.09
2023-03-08T15:08:28.091Z,3.08
2023-03-08T15:13:53.104Z,2.97
2023-03-08T15:19:21.170Z,2.87
2023-03-08T15:24:46.158Z,2.75
2023-03-08T15:30:11.144Z,2.72
2023-03-08T15:35:39.129Z,2.62
2023-03-08T15:41:05.155Z,2.51
2023-03-08T15:46:30.188Z,2.43
2023-03-08T15:51:58.118Z,2.34
2023-03-08T15:57:23.114Z,2.25
2023-03-08T16:02:47.192Z,2.19
2023-03-08T16:08:15.101Z,2.10
2023-03-08T16:13:46.139Z,2.00
2023-03-08T16:19:11.142Z,1.90
2023-03-08T16:24:38.153Z,1.82
2023-03-08T16:30:05.156Z,1.75
2023-03-08T16:35:30.188Z,1.73
2023-03-08T16:41:11.572Z,1.71
2023-03-08T16:46:38.157Z,1.68
2023-03-08T16:52:03.151Z,1.65
2023-03-08T16:57:31.133Z,1.61
2023-03-08T17:02:56.233Z,1.59
2023-03-08T17:08:20.157Z,1.58
2023-03-08T17:13:54.167Z,1.54
2023-03-08T17:19:22.150Z,1.56
2023-03-08T17:24:46.135Z,1.52
2023-03-08T17:30:14.174Z,1.51
2023-03-08T17:35:38.252Z,1.51
2023-03-08T17:41:03.172Z,1.52
2023-03-08T17:46:33.205Z,1.52
2023-03-08T17:52:00.152Z,1.54
2023-03-08T17:57:25.168Z,1.54
2023-03-08T18:02:53.181Z,1.56
2023-03-08T18:08:17.172Z,1.56
2023-03-08T18:13:48.247Z,1.54
2023-03-08T18:19:16.202Z,1.52
2023-03-08T18:24:42.191Z,1.53
2023-03-08T18:30:07.200Z,1.54
2023-03-08T18:35:34.243Z,1.57
2023-03-08T18:40:59.185Z,1.60
2023-03-08T18:46:24.283Z,1.59
2023-03-08T18:51:53.218Z,1.60
2023-03-08T18:57:17.186Z,1.57
2023-03-08T19:02:42.190Z,1.58
2023-03-08T19:08:10.223Z,1.58
2023-03-08T19:13:41.242Z,1.54
2023-03-08T19:19:08.258Z,1.54
2023-03-08T19:24:36.235Z,1.53
2023-03-08T19:30:01.188Z,1.54
2023-03-08T19:35:27.196Z,1.53
2023-03-08T19:40:55.196Z,1.52
2023-03-08T19:46:24.243Z,1.54
2023-03-08T19:51:50.268Z,1.54
2023-03-08T19:57:17.244Z,1.56
2023-03-08T20:02:42.225Z,1.57
2023-03-08T20:08:06.233Z,1.60
2023-03-08T20:13:34.235Z,1.69
2023-03-08T20:18:58.305Z,1.67
2023-03-08T20:24:25.270Z,1.66
2023-03-08T20:29:52.264Z,1.63
2023-03-08T20:35:23.894Z,1.56
2023-03-08T20:40:48.223Z,1.52
2023-03-08T20:46:18.268Z,1.49
2023-03-08T20:51:43.241Z,1.47
2023-03-08T20:57:08.271Z,1.41
2023-03-08T21:02:35.326Z,1.37
2023-03-08T21:08:00.225Z,1.36
2023-03-08T21:13:24.229Z,1.37
2023-03-08T21:18:53.270Z,1.37
2023-03-08T21:24:21.254Z,1.39
2023-03-08T21:29:46.249Z,1.40
2023-03-08T21:35:13.281Z,1.42
2023-03-08T21:40:38.251Z,1.44
2023-03-08T21:46:02.444Z,1.47
2023-03-08T21:51:30.245Z,1.47
2023-03-08T21:56:54.261Z,1.45
2023-03-08T22:02:19.273Z,1.45
2023-03-08T22:07:46.291Z,1.45
2023-03-08T22:13:11.282Z,1.46
2023-03-08T22:18:35.283Z,1.46
2023-03-08T22:24:04.273Z,1.50
2023-03-08T22:29:28.303Z,1.51
2023-03-08T22:34:53.292Z,1.48
2023-03-08T22:40:25.297Z,1.50
2023-03-08T22:45:50.316Z,1.51
2023-03-08T22:51:15.308Z,1.51
2023-03-08T22:56:43.337Z,1.53
2023-03-08T23:02:08.286Z,1.51
2023-03-08T23:07:33.303Z,1.53
2023-03-08T23:13:00.298Z,1.54
2023-03-08T23:18:26.315Z,1.53
2023-03-08T23:23:51.302Z,1.50
2023-03-08T23:29:25.312Z,1.44
2023-03-08T23:34:50.304Z,1.46
2023-03-08T23:40:17.319Z,1.49
2023-03-08T23:45:47.356Z,1.49
2023-03-08T23:51:11.798Z,1.46
2023-03-08T23:56:44.306Z,1.45
